sensor_id;sensor_type;location;lat;lon;timestamp;P1;durP1;ratioP1;P2;durP2;ratioP2
5801;SDS011;2927;49.366;8.530;2023-12-04T00:02:10;16.00;;;8.60;;
5801;SDS011;2927;49.366;8.530;2023-12-04T00:04:35;14.00;;;7.07;;
5801;SDS011;2927;49.366;8.530;2023-12-04T00:07:01;17.03;;;7.73;;
5801;SDS011;2927;49.366;8.530;2023-12-04T00:09:26;12.77;;;6.77;;
5801;SDS011;2927;49.366;8.530;2023-12-04T00:11:52;17.90;;;8.73;;
5801;SDS011;2927;49.366;8.530;2023-12-04T00:14:18;19.10;;;8.13;;
5801;SDS011;2927;49.366;8.530;2023-12-04T00:16:43;10.37;;;5.43;;
5801;SDS011;2927;49.366;8.530;2023-12-04T00:19:09;18.53;;;7.27;;
5801;SDS011;2927;49.366;8.530;2023-12-04T00:21:34;13.30;;;6.50;;
5801;SDS011;2927;49.366;8.530;2023-12-04T00:24:00;14.40;;;7.13;;
5801;SDS011;2927;49.366;8.530;2023-12-04T00:26:26;14.70;;;7.97;;
5801;SDS011;2927;49.366;8.530;2023-12-04T00:28:51;17.90;;;8.63;;
5801;SDS011;2927;49.366;8.530;2023-12-04T00:31:17;12.40;;;7.47;;
5801;SDS011;2927;49.366;8.530;2023-12-04T00:33:42;15.77;;;7.00;;
5801;SDS011;2927;49.366;8.530;2023-12-04T00:36:08;16.47;;;7.60;;
5801;SDS011;2927;49.366;8.530;2023-12-04T00:38:34;17.97;;;7.83;;
5801;SDS011;2927;49.366;8.530;2023-12-04T00:41:00;13.60;;;6.60;;
5801;SDS011;2927;49.366;8.530;2023-12-04T00:43:26;17.53;;;7.27;;
5801;SDS011;2927;49.366;8.530;2023-12-04T00:45:51;15.17;;;6.80;;
5801;SDS011;2927;49.366;8.530;2023-12-04T00:48:17;17.30;;;7.17;;
5801;SDS011;2927;49.366;8.530;2023-12-04T00:50:42;19.57;;;7.50;;
5801;SDS011;2927;49.366;8.530;2023-12-04T00:53:08;14.20;;;8.03;;
5801;SDS011;2927;49.366;8.530;2023-12-04T00:55:33;15.40;;;7.80;;
5801;SDS011;2927;49.366;8.530;2023-12-04T00:57:59;14.53;;;7.50;;
5801;SDS011;2927;49.366;8.530;2023-12-04T01:00:24;13.40;;;6.07;;
5801;SDS011;2927;49.366;8.530;2023-12-04T01:02:51;20.90;;;7.90;;
5801;SDS011;2927;49.366;8.530;2023-12-04T01:05:16;16.00;;;7.27;;
5801;SDS011;2927;49.366;8.530;2023-12-04T01:07:42;17.57;;;7.37;;
5801;SDS011;2927;49.366;8.530;2023-12-04T01:10:07;13.40;;;7.43;;
5801;SDS011;2927;49.366;8.530;2023-12-04T01:12:33;10.57;;;6.17;;
5801;SDS011;2927;49.366;8.530;2023-12-04T01:15:00;14.77;;;7.37;;
5801;SDS011;2927;49.366;8.530;2023-12-04T01:17:26;10.43;;;6.70;;
5801;SDS011;2927;49.366;8.530;2023-12-04T01:19:52;13.97;;;6.50;;
5801;SDS011;2927;49.366;8.530;2023-12-04T01:22:17;12.00;;;6.03;;
5801;SDS011;2927;49.366;8.530;2023-12-04T01:24:43;15.13;;;6.50;;
5801;SDS011;2927;49.366;8.530;2023-12-04T01:27:08;12.93;;;6.83;;
5801;SDS011;2927;49.366;8.530;2023-12-04T01:29:34;13.60;;;7.30;;
5801;SDS011;2927;49.366;8.530;2023-12-04T01:32:00;13.70;;;7.33;;
5801;SDS011;2927;49.366;8.530;2023-12-04T01:34:25;12.93;;;6.90;;
5801;SDS011;2927;49.366;8.530;2023-12-04T01:36:51;14.77;;;7.23;;
5801;SDS011;2927;49.366;8.530;2023-12-04T01:39:16;11.27;;;6.07;;
5801;SDS011;2927;49.366;8.530;2023-12-04T01:41:42;14.40;;;6.17;;
5801;SDS011;2927;49.366;8.530;2023-12-04T01:44:07;13.17;;;6.90;;
5801;SDS011;2927;49.366;8.530;2023-12-04T01:46:33;17.27;;;7.40;;
5801;SDS011;2927;49.366;8.530;2023-12-04T01:48:59;13.43;;;5.50;;
5801;SDS011;2927;49.366;8.530;2023-12-04T01:51:25;10.80;;;6.20;;
5801;SDS011;2927;49.366;8.530;2023-12-04T01:53:51;14.00;;;6.37;;
5801;SDS011;2927;49.366;8.530;2023-12-04T01:56:17;13.17;;;6.20;;
5801;SDS011;2927;49.366;8.530;2023-12-04T01:58:44;12.00;;;5.80;;
5801;SDS011;2927;49.366;8.530;2023-12-04T02:01:10;13.10;;;5.97;;
5801;SDS011;2927;49.366;8.530;2023-12-04T02:03:36;12.00;;;6.50;;
5801;SDS011;2927;49.366;8.530;2023-12-04T02:06:02;16.40;;;7.13;;
5801;SDS011;2927;49.366;8.530;2023-12-04T02:08:29;11.00;;;5.50;;
5801;SDS011;2927;49.366;8.530;2023-12-04T02:10:55;12.20;;;6.53;;
5801;SDS011;2927;49.366;8.530;2023-12-04T02:13:21;16.63;;;7.30;;
5801;SDS011;2927;49.366;8.530;2023-12-04T02:15:46;12.47;;;5.97;;
5801;SDS011;2927;49.366;8.530;2023-12-04T02:18:17;14.00;;;5.70;;
5801;SDS011;2927;49.366;8.530;2023-12-04T02:20:43;12.00;;;6.83;;
5801;SDS011;2927;49.366;8.530;2023-12-04T02:23:08;9.47;;;5.60;;
5801;SDS011;2927;49.366;8.530;2023-12-04T02:25:34;14.77;;;6.43;;
5801;SDS011;2927;49.366;8.530;2023-12-04T02:28:01;14.50;;;5.93;;
5801;SDS011;2927;49.366;8.530;2023-12-04T02:30:28;13.40;;;7.30;;
5801;SDS011;2927;49.366;8.530;2023-12-04T02:32:56;12.77;;;6.80;;
5801;SDS011;2927;49.366;8.530;2023-12-04T02:35:24;9.30;;;6.30;;
5801;SDS011;2927;49.366;8.530;2023-12-04T02:37:52;11.43;;;5.63;;
5801;SDS011;2927;49.366;8.530;2023-12-04T02:40:18;11.07;;;5.87;;
5801;SDS011;2927;49.366;8.530;2023-12-04T02:42:45;6.93;;;4.57;;
5801;SDS011;2927;49.366;8.530;2023-12-04T02:45:10;11.23;;;6.07;;
5801;SDS011;2927;49.366;8.530;2023-12-04T02:47:36;10.77;;;5.53;;
5801;SDS011;2927;49.366;8.530;2023-12-04T02:50:02;12.43;;;6.63;;
5801;SDS011;2927;49.366;8.530;2023-12-04T02:52:27;12.40;;;5.80;;
5801;SDS011;2927;49.366;8.530;2023-12-04T02:54:53;14.40;;;6.57;;
5801;SDS011;2927;49.366;8.530;2023-12-04T02:57:18;11.37;;;5.73;;
5801;SDS011;2927;49.366;8.530;2023-12-04T02:59:45;12.70;;;6.37;;
5801;SDS011;2927;49.366;8.530;2023-12-04T03:02:10;10.57;;;5.27;;
5801;SDS011;2927;49.366;8.530;2023-12-04T03:04:36;9.50;;;5.40;;
5801;SDS011;2927;49.366;8.530;2023-12-04T03:07:01;11.73;;;6.60;;
5801;SDS011;2927;49.366;8.530;2023-12-04T03:09:27;13.57;;;5.20;;
5801;SDS011;2927;49.366;8.530;2023-12-04T03:11:52;10.00;;;5.93;;
5801;SDS011;2927;49.366;8.530;2023-12-04T03:14:18;11.00;;;5.87;;
5801;SDS011;2927;49.366;8.530;2023-12-04T03:16:44;11.53;;;5.93;;
5801;SDS011;2927;49.366;8.530;2023-12-04T03:19:09;10.43;;;5.13;;
5801;SDS011;2927;49.366;8.530;2023-12-04T03:21:35;9.20;;;6.00;;
5801;SDS011;2927;49.366;8.530;2023-12-04T03:24:00;12.37;;;5.70;;
5801;SDS011;2927;49.366;8.530;2023-12-04T03:26:26;10.77;;;6.37;;
5801;SDS011;2927;49.366;8.530;2023-12-04T03:28:53;8.70;;;4.70;;
5801;SDS011;2927;49.366;8.530;2023-12-04T03:31:18;13.30;;;5.30;;
5801;SDS011;2927;49.366;8.530;2023-12-04T03:33:44;5.83;;;4.33;;
5801;SDS011;2927;49.366;8.530;2023-12-04T03:36:09;11.97;;;5.17;;
5801;SDS011;2927;49.366;8.530;2023-12-04T03:38:35;14.03;;;6.00;;
5801;SDS011;2927;49.366;8.530;2023-12-04T03:41:01;9.87;;;5.90;;
5801;SDS011;2927;49.366;8.530;2023-12-04T03:43:26;12.13;;;6.10;;
5801;SDS011;2927;49.366;8.530;2023-12-04T03:45:52;12.90;;;5.37;;
5801;SDS011;2927;49.366;8.530;2023-12-04T03:48:17;10.47;;;5.63;;
5801;SDS011;2927;49.366;8.530;2023-12-04T03:50:43;9.20;;;4.97;;
5801;SDS011;2927;49.366;8.530;2023-12-04T03:53:09;9.80;;;5.33;;
5801;SDS011;2927;49.366;8.530;2023-12-04T03:55:34;23.30;;;7.87;;
5801;SDS011;2927;49.366;8.530;2023-12-04T03:58:00;15.87;;;5.93;;
5801;SDS011;2927;49.366;8.530;2023-12-04T04:00:25;15.30;;;5.90;;
5801;SDS011;2927;49.366;8.530;2023-12-04T04:02:51;9.87;;;4.93;;
5801;SDS011;2927;49.366;8.530;2023-12-04T04:05:17;11.47;;;5.53;;
5801;SDS011;2927;49.366;8.530;2023-12-04T04:07:42;9.57;;;5.20;;
5801;SDS011;2927;49.366;8.530;2023-12-04T04:10:08;8.07;;;5.37;;
5801;SDS011;2927;49.366;8.530;2023-12-04T04:12:34;12.43;;;5.70;;
5801;SDS011;2927;49.366;8.530;2023-12-04T04:14:59;12.87;;;6.53;;
5801;SDS011;2927;49.366;8.530;2023-12-04T04:17:25;14.90;;;6.70;;
5801;SDS011;2927;49.366;8.530;2023-12-04T04:19:54;11.67;;;6.17;;
5801;SDS011;2927;49.366;8.530;2023-12-04T04:22:20;12.60;;;6.20;;
5801;SDS011;2927;49.366;8.530;2023-12-04T04:24:46;12.20;;;5.90;;
5801;SDS011;2927;49.366;8.530;2023-12-04T04:27:12;12.03;;;6.20;;
5801;SDS011;2927;49.366;8.530;2023-12-04T04:29:38;17.10;;;6.20;;
5801;SDS011;2927;49.366;8.530;2023-12-04T04:32:03;14.00;;;7.17;;
5801;SDS011;2927;49.366;8.530;2023-12-04T04:34:29;13.20;;;6.10;;
5801;SDS011;2927;49.366;8.530;2023-12-04T04:36:55;11.43;;;5.27;;
5801;SDS011;2927;49.366;8.530;2023-12-04T04:39:20;11.77;;;6.03;;
5801;SDS011;2927;49.366;8.530;2023-12-04T04:41:46;8.77;;;4.70;;
5801;SDS011;2927;49.366;8.530;2023-12-04T04:44:12;11.20;;;5.80;;
5801;SDS011;2927;49.366;8.530;2023-12-04T04:46:37;10.37;;;5.93;;
5801;SDS011;2927;49.366;8.530;2023-12-04T04:49:02;11.50;;;5.80;;
5801;SDS011;2927;49.366;8.530;2023-12-04T04:51:31;12.53;;;5.70;;
5801;SDS011;2927;49.366;8.530;2023-12-04T04:53:58;8.40;;;5.10;;
5801;SDS011;2927;49.366;8.530;2023-12-04T04:56:24;9.23;;;4.83;;
5801;SDS011;2927;49.366;8.530;2023-12-04T04:58:50;11.50;;;6.03;;
5801;SDS011;2927;49.366;8.530;2023-12-04T05:01:15;11.70;;;7.03;;
5801;SDS011;2927;49.366;8.530;2023-12-04T05:03:41;7.57;;;5.20;;
5801;SDS011;2927;49.366;8.530;2023-12-04T05:06:06;10.60;;;6.23;;
5801;SDS011;2927;49.366;8.530;2023-12-04T05:08:32;14.37;;;5.70;;
5801;SDS011;2927;49.366;8.530;2023-12-04T05:10:57;14.30;;;7.13;;
5801;SDS011;2927;49.366;8.530;2023-12-04T05:13:23;9.90;;;5.67;;
5801;SDS011;2927;49.366;8.530;2023-12-04T05:15:48;15.13;;;6.27;;
5801;SDS011;2927;49.366;8.530;2023-12-04T05:18:14;11.50;;;6.47;;
5801;SDS011;2927;49.366;8.530;2023-12-04T05:20:40;13.67;;;5.80;;
5801;SDS011;2927;49.366;8.530;2023-12-04T05:23:05;16.97;;;6.67;;
5801;SDS011;2927;49.366;8.530;2023-12-04T05:25:31;12.30;;;6.20;;
5801;SDS011;2927;49.366;8.530;2023-12-04T05:27:56;12.70;;;5.97;;
5801;SDS011;2927;49.366;8.530;2023-12-04T05:30:22;13.27;;;6.90;;
5801;SDS011;2927;49.366;8.530;2023-12-04T05:32:47;15.40;;;7.40;;
5801;SDS011;2927;49.366;8.530;2023-12-04T05:35:14;12.93;;;6.00;;
5801;SDS011;2927;49.366;8.530;2023-12-04T05:37:41;9.37;;;5.30;;
5801;SDS011;2927;49.366;8.530;2023-12-04T05:40:06;12.03;;;4.80;;
5801;SDS011;2927;49.366;8.530;2023-12-04T05:42:33;12.90;;;6.27;;
5801;SDS011;2927;49.366;8.530;2023-12-04T05:44:58;13.33;;;6.97;;
5801;SDS011;2927;49.366;8.530;2023-12-04T05:47:25;11.83;;;6.03;;
5801;SDS011;2927;49.366;8.530;2023-12-04T05:49:51;10.37;;;4.87;;
5801;SDS011;2927;49.366;8.530;2023-12-04T05:52:16;10.73;;;6.10;;
5801;SDS011;2927;49.366;8.530;2023-12-04T05:54:42;15.57;;;6.90;;
5801;SDS011;2927;49.366;8.530;2023-12-04T05:57:07;16.00;;;7.20;;
5801;SDS011;2927;49.366;8.530;2023-12-04T05:59:33;13.20;;;5.80;;
5801;SDS011;2927;49.366;8.530;2023-12-04T06:01:59;13.90;;;7.60;;
5801;SDS011;2927;49.366;8.530;2023-12-04T06:04:24;16.60;;;6.57;;
5801;SDS011;2927;49.366;8.530;2023-12-04T06:06:50;18.30;;;8.27;;
5801;SDS011;2927;49.366;8.530;2023-12-04T06:09:16;15.63;;;7.43;;
5801;SDS011;2927;49.366;8.530;2023-12-04T06:11:41;13.80;;;6.43;;
5801;SDS011;2927;49.366;8.530;2023-12-04T06:14:07;16.17;;;7.00;;
5801;SDS011;2927;49.366;8.530;2023-12-04T06:16:33;22.50;;;7.90;;
5801;SDS011;2927;49.366;8.530;2023-12-04T06:18:58;14.50;;;6.97;;
5801;SDS011;2927;49.366;8.530;2023-12-04T06:21:24;11.80;;;6.30;;
5801;SDS011;2927;49.366;8.530;2023-12-04T06:23:49;14.20;;;7.20;;
5801;SDS011;2927;49.366;8.530;2023-12-04T06:26:15;10.93;;;5.57;;
5801;SDS011;2927;49.366;8.530;2023-12-04T06:28:42;15.70;;;5.80;;
5801;SDS011;2927;49.366;8.530;2023-12-04T06:31:08;12.50;;;6.70;;
5801;SDS011;2927;49.366;8.530;2023-12-04T06:33:35;14.23;;;6.40;;
5801;SDS011;2927;49.366;8.530;2023-12-04T06:36:01;14.53;;;5.57;;
5801;SDS011;2927;49.366;8.530;2023-12-04T06:38:26;17.00;;;7.00;;
5801;SDS011;2927;49.366;8.530;2023-12-04T06:40:57;17.30;;;7.77;;
5801;SDS011;2927;49.366;8.530;2023-12-04T06:43:23;12.93;;;6.60;;
5801;SDS011;2927;49.366;8.530;2023-12-04T06:45:49;11.30;;;6.20;;
5801;SDS011;2927;49.366;8.530;2023-12-04T06:48:15;12.63;;;4.40;;
5801;SDS011;2927;49.366;8.530;2023-12-04T06:50:41;13.97;;;6.33;;
5801;SDS011;2927;49.366;8.530;2023-12-04T06:53:06;9.60;;;5.50;;
5801;SDS011;2927;49.366;8.530;2023-12-04T06:55:32;9.00;;;5.27;;
5801;SDS011;2927;49.366;8.530;2023-12-04T06:57:58;11.77;;;6.13;;
5801;SDS011;2927;49.366;8.530;2023-12-04T07:00:23;9.83;;;6.17;;
5801;SDS011;2927;49.366;8.530;2023-12-04T07:02:49;11.13;;;6.27;;
5801;SDS011;2927;49.366;8.530;2023-12-04T07:05:15;14.83;;;10.20;;
5801;SDS011;2927;49.366;8.530;2023-12-04T07:07:41;8.23;;;4.90;;
5801;SDS011;2927;49.366;8.530;2023-12-04T07:10:07;11.07;;;6.20;;
5801;SDS011;2927;49.366;8.530;2023-12-04T07:12:33;9.03;;;5.97;;
5801;SDS011;2927;49.366;8.530;2023-12-04T07:14:58;16.90;;;5.47;;
5801;SDS011;2927;49.366;8.530;2023-12-04T07:17:24;15.73;;;7.23;;
5801;SDS011;2927;49.366;8.530;2023-12-04T07:19:49;11.57;;;6.30;;
5801;SDS011;2927;49.366;8.530;2023-12-04T07:22:15;10.20;;;5.40;;
5801;SDS011;2927;49.366;8.530;2023-12-04T07:24:40;8.70;;;5.27;;
5801;SDS011;2927;49.366;8.530;2023-12-04T07:27:06;24.67;;;6.80;;
5801;SDS011;2927;49.366;8.530;2023-12-04T07:29:31;31.17;;;5.90;;
5801;SDS011;2927;49.366;8.530;2023-12-04T07:31:57;10.27;;;6.00;;
5801;SDS011;2927;49.366;8.530;2023-12-04T07:34:23;8.67;;;5.17;;
5801;SDS011;2927;49.366;8.530;2023-12-04T07:36:49;9.83;;;6.00;;
5801;SDS011;2927;49.366;8.530;2023-12-04T07:39:15;10.80;;;5.80;;
5801;SDS011;2927;49.366;8.530;2023-12-04T07:41:41;9.30;;;5.13;;
5801;SDS011;2927;49.366;8.530;2023-12-04T07:44:07;10.20;;;5.23;;
5801;SDS011;2927;49.366;8.530;2023-12-04T07:46:33;16.63;;;5.40;;
5801;SDS011;2927;49.366;8.530;2023-12-04T07:48:59;8.53;;;5.20;;
5801;SDS011;2927;49.366;8.530;2023-12-04T07:51:24;7.60;;;4.40;;
5801;SDS011;2927;49.366;8.530;2023-12-04T07:53:50;10.03;;;5.90;;
5801;SDS011;2927;49.366;8.530;2023-12-04T07:56:15;9.07;;;5.30;;
5801;SDS011;2927;49.366;8.530;2023-12-04T07:58:41;7.37;;;5.17;;
5801;SDS011;2927;49.366;8.530;2023-12-04T08:01:06;8.23;;;5.17;;
5801;SDS011;2927;49.366;8.530;2023-12-04T08:03:32;6.90;;;4.53;;
5801;SDS011;2927;49.366;8.530;2023-12-04T08:05:58;5.33;;;3.60;;
5801;SDS011;2927;49.366;8.530;2023-12-04T08:08:23;7.00;;;4.80;;
5801;SDS011;2927;49.366;8.530;2023-12-04T08:10:49;11.07;;;5.00;;
5801;SDS011;2927;49.366;8.530;2023-12-04T08:13:15;7.17;;;4.17;;
5801;SDS011;2927;49.366;8.530;2023-12-04T08:15:42;7.23;;;3.63;;
5801;SDS011;2927;49.366;8.530;2023-12-04T08:18:08;7.60;;;4.20;;
5801;SDS011;2927;49.366;8.530;2023-12-04T08:20:33;6.13;;;3.67;;
5801;SDS011;2927;49.366;8.530;2023-12-04T08:22:59;8.77;;;5.80;;
5801;SDS011;2927;49.366;8.530;2023-12-04T08:25:25;8.60;;;3.90;;
5801;SDS011;2927;49.366;8.530;2023-12-04T08:27:51;7.80;;;5.10;;
5801;SDS011;2927;49.366;8.530;2023-12-04T08:30:16;10.87;;;5.30;;
5801;SDS011;2927;49.366;8.530;2023-12-04T08:32:43;13.80;;;4.80;;
5801;SDS011;2927;49.366;8.530;2023-12-04T08:35:08;5.00;;;3.53;;
5801;SDS011;2927;49.366;8.530;2023-12-04T08:37:34;7.97;;;4.27;;
5801;SDS011;2927;49.366;8.530;2023-12-04T08:39:59;8.20;;;4.10;;
5801;SDS011;2927;49.366;8.530;2023-12-04T08:42:25;4.63;;;3.50;;
5801;SDS011;2927;49.366;8.530;2023-12-04T08:44:51;5.67;;;3.67;;
5801;SDS011;2927;49.366;8.530;2023-12-04T08:47:16;8.57;;;3.60;;
5801;SDS011;2927;49.366;8.530;2023-12-04T08:49:42;6.03;;;3.60;;
5801;SDS011;2927;49.366;8.530;2023-12-04T08:52:08;7.63;;;3.33;;
5801;SDS011;2927;49.366;8.530;2023-12-04T08:54:35;6.43;;;3.50;;
5801;SDS011;2927;49.366;8.530;2023-12-04T08:57:05;6.03;;;3.20;;
5801;SDS011;2927;49.366;8.530;2023-12-04T08:59:30;12.67;;;6.00;;
5801;SDS011;2927;49.366;8.530;2023-12-04T09:01:56;7.80;;;4.20;;
5801;SDS011;2927;49.366;8.530;2023-12-04T09:04:21;6.80;;;4.57;;
5801;SDS011;2927;49.366;8.530;2023-12-04T09:06:47;4.40;;;3.40;;
5801;SDS011;2927;49.366;8.530;2023-12-04T09:09:12;3.77;;;2.80;;
5801;SDS011;2927;49.366;8.530;2023-12-04T09:11:43;17.17;;;4.37;;
5801;SDS011;2927;49.366;8.530;2023-12-04T09:14:09;9.03;;;4.20;;
5801;SDS011;2927;49.366;8.530;2023-12-04T09:16:35;9.17;;;3.80;;
5801;SDS011;2927;49.366;8.530;2023-12-04T09:19:00;6.33;;;4.00;;
5801;SDS011;2927;49.366;8.530;2023-12-04T09:21:26;9.70;;;5.67;;
5801;SDS011;2927;49.366;8.530;2023-12-04T09:23:51;7.60;;;4.60;;
5801;SDS011;2927;49.366;8.530;2023-12-04T09:26:17;9.63;;;4.40;;
5801;SDS011;2927;49.366;8.530;2023-12-04T09:28:43;8.70;;;4.30;;
5801;SDS011;2927;49.366;8.530;2023-12-04T09:31:09;16.10;;;4.17;;
5801;SDS011;2927;49.366;8.530;2023-12-04T09:33:34;6.97;;;4.07;;
5801;SDS011;2927;49.366;8.530;2023-12-04T09:36:01;6.50;;;4.07;;
5801;SDS011;2927;49.366;8.530;2023-12-04T09:38:26;12.50;;;5.53;;
5801;SDS011;2927;49.366;8.530;2023-12-04T09:40:52;12.40;;;5.67;;
5801;SDS011;2927;49.366;8.530;2023-12-04T09:43:19;8.37;;;4.40;;
5801;SDS011;2927;49.366;8.530;2023-12-04T09:45:45;16.40;;;5.97;;
5801;SDS011;2927;49.366;8.530;2023-12-04T09:48:11;10.40;;;5.93;;
5801;SDS011;2927;49.366;8.530;2023-12-04T09:50:37;11.07;;;4.63;;
5801;SDS011;2927;49.366;8.530;2023-12-04T09:53:03;7.83;;;4.27;;
5801;SDS011;2927;49.366;8.530;2023-12-04T09:55:31;6.80;;;4.37;;
5801;SDS011;2927;49.366;8.530;2023-12-04T09:57:56;7.93;;;3.90;;
5801;SDS011;2927;49.366;8.530;2023-12-04T10:00:22;14.63;;;7.40;;
5801;SDS011;2927;49.366;8.530;2023-12-04T10:02:49;9.63;;;4.97;;
5801;SDS011;2927;49.366;8.530;2023-12-04T10:05:15;7.43;;;4.40;;
5801;SDS011;2927;49.366;8.530;2023-12-04T10:07:40;7.50;;;4.30;;
5801;SDS011;2927;49.366;8.530;2023-12-04T10:10:06;8.70;;;4.50;;
5801;SDS011;2927;49.366;8.530;2023-12-04T10:12:33;8.23;;;4.77;;
5801;SDS011;2927;49.366;8.530;2023-12-04T10:15:17;8.90;;;4.83;;
5801;SDS011;2927;49.366;8.530;2023-12-04T10:17:42;8.50;;;4.70;;
5801;SDS011;2927;49.366;8.530;2023-12-04T10:20:11;4.47;;;3.30;;
5801;SDS011;2927;49.366;8.530;2023-12-04T10:23:00;7.20;;;4.03;;
5801;SDS011;2927;49.366;8.530;2023-12-04T10:25:30;7.00;;;4.97;;
5801;SDS011;2927;49.366;8.530;2023-12-04T10:28:08;6.27;;;4.30;;
5801;SDS011;2927;49.366;8.530;2023-12-04T10:30:35;9.00;;;4.93;;
5801;SDS011;2927;49.366;8.530;2023-12-04T10:33:02;8.40;;;4.00;;
5801;SDS011;2927;49.366;8.530;2023-12-04T10:35:30;9.40;;;4.87;;
5801;SDS011;2927;49.366;8.530;2023-12-04T10:37:56;7.50;;;4.50;;
5801;SDS011;2927;49.366;8.530;2023-12-04T10:40:23;9.13;;;5.27;;
5801;SDS011;2927;49.366;8.530;2023-12-04T10:42:49;10.70;;;5.80;;
5801;SDS011;2927;49.366;8.530;2023-12-04T10:45:15;10.53;;;5.03;;
5801;SDS011;2927;49.366;8.530;2023-12-04T10:47:41;10.80;;;5.80;;
5801;SDS011;2927;49.366;8.530;2023-12-04T10:50:09;8.87;;;5.20;;
5801;SDS011;2927;49.366;8.530;2023-12-04T10:52:34;11.03;;;5.23;;
5801;SDS011;2927;49.366;8.530;2023-12-04T10:55:05;14.03;;;7.77;;
5801;SDS011;2927;49.366;8.530;2023-12-04T10:57:33;7.20;;;5.20;;
5801;SDS011;2927;49.366;8.530;2023-12-04T11:00:03;8.97;;;5.40;;
5801;SDS011;2927;49.366;8.530;2023-12-04T11:02:32;5.70;;;4.57;;
5801;SDS011;2927;49.366;8.530;2023-12-04T11:05:01;12.03;;;6.50;;
5801;SDS011;2927;49.366;8.530;2023-12-04T11:07:38;11.60;;;6.70;;
5801;SDS011;2927;49.366;8.530;2023-12-04T11:10:21;8.97;;;5.50;;
5801;SDS011;2927;49.366;8.530;2023-12-04T11:12:51;9.60;;;5.90;;
5801;SDS011;2927;49.366;8.530;2023-12-04T11:15:24;7.13;;;4.60;;
5801;SDS011;2927;49.366;8.530;2023-12-04T11:17:51;8.20;;;4.77;;
5801;SDS011;2927;49.366;8.530;2023-12-04T11:20:21;13.03;;;5.93;;
5801;SDS011;2927;49.366;8.530;2023-12-04T11:22:49;6.97;;;4.20;;
5801;SDS011;2927;49.366;8.530;2023-12-04T11:25:16;5.13;;;4.40;;
5801;SDS011;2927;49.366;8.530;2023-12-04T11:27:42;7.90;;;4.43;;
5801;SDS011;2927;49.366;8.530;2023-12-04T11:30:08;10.60;;;5.97;;
5801;SDS011;2927;49.366;8.530;2023-12-04T11:32:46;8.60;;;5.10;;
5801;SDS011;2927;49.366;8.530;2023-12-04T11:35:14;10.77;;;5.13;;
5801;SDS011;2927;49.366;8.530;2023-12-04T11:37:42;9.73;;;5.77;;
5801;SDS011;2927;49.366;8.530;2023-12-04T11:40:12;17.33;;;5.60;;
5801;SDS011;2927;49.366;8.530;2023-12-04T11:42:40;5.07;;;3.83;;
5801;SDS011;2927;49.366;8.530;2023-12-04T11:45:06;12.90;;;6.47;;
5801;SDS011;2927;49.366;8.530;2023-12-04T11:47:51;9.37;;;5.30;;
5801;SDS011;2927;49.366;8.530;2023-12-04T11:50:21;8.40;;;5.50;;
5801;SDS011;2927;49.366;8.530;2023-12-04T11:52:48;9.50;;;4.57;;
5801;SDS011;2927;49.366;8.530;2023-12-04T11:55:17;6.93;;;4.80;;
5801;SDS011;2927;49.366;8.530;2023-12-04T11:57:47;8.90;;;5.43;;
5801;SDS011;2927;49.366;8.530;2023-12-04T12:05:23;9.30;;;5.17;;
5801;SDS011;2927;49.366;8.530;2023-12-04T12:07:50;12.57;;;4.57;;
5801;SDS011;2927;49.366;8.530;2023-12-04T12:10:16;13.83;;;6.10;;
5801;SDS011;2927;49.366;8.530;2023-12-04T12:12:42;10.20;;;5.57;;
5801;SDS011;2927;49.366;8.530;2023-12-04T12:15:09;8.83;;;5.10;;
5801;SDS011;2927;49.366;8.530;2023-12-04T12:17:35;9.90;;;6.30;;
5801;SDS011;2927;49.366;8.530;2023-12-04T12:20:04;11.07;;;6.27;;
5801;SDS011;2927;49.366;8.530;2023-12-04T12:22:34;14.97;;;6.27;;
5801;SDS011;2927;49.366;8.530;2023-12-04T12:25:01;7.27;;;5.00;;
5801;SDS011;2927;49.366;8.530;2023-12-04T12:27:29;8.60;;;5.10;;
5801;SDS011;2927;49.366;8.530;2023-12-04T12:29:55;11.43;;;5.03;;
5801;SDS011;2927;49.366;8.530;2023-12-04T12:32:21;8.83;;;5.60;;
5801;SDS011;2927;49.366;8.530;2023-12-04T12:34:46;6.90;;;4.80;;
5801;SDS011;2927;49.366;8.530;2023-12-04T12:37:12;9.73;;;5.20;;
5801;SDS011;2927;49.366;8.530;2023-12-04T12:39:38;7.90;;;4.60;;
5801;SDS011;2927;49.366;8.530;2023-12-04T12:42:04;8.60;;;5.40;;
5801;SDS011;2927;49.366;8.530;2023-12-04T12:44:37;8.77;;;4.90;;
5801;SDS011;2927;49.366;8.530;2023-12-04T12:47:05;10.97;;;6.37;;
5801;SDS011;2927;49.366;8.530;2023-12-04T12:49:32;12.63;;;6.17;;
5801;SDS011;2927;49.366;8.530;2023-12-04T12:51:59;10.00;;;6.37;;
5801;SDS011;2927;49.366;8.530;2023-12-04T12:54:25;11.67;;;5.60;;
5801;SDS011;2927;49.366;8.530;2023-12-04T12:56:50;9.97;;;5.00;;
5801;SDS011;2927;49.366;8.530;2023-12-04T12:59:16;12.20;;;6.17;;
5801;SDS011;2927;49.366;8.530;2023-12-04T13:01:43;12.00;;;5.97;;
5801;SDS011;2927;49.366;8.530;2023-12-04T13:04:13;13.03;;;5.93;;
5801;SDS011;2927;49.366;8.530;2023-12-04T13:06:40;11.70;;;6.07;;
5801;SDS011;2927;49.366;8.530;2023-12-04T13:09:06;14.50;;;6.20;;
5801;SDS011;2927;49.366;8.530;2023-12-04T13:11:31;15.00;;;6.73;;
5801;SDS011;2927;49.366;8.530;2023-12-04T13:13:58;13.00;;;7.17;;
5801;SDS011;2927;49.366;8.530;2023-12-04T13:16:24;14.37;;;7.13;;
5801;SDS011;2927;49.366;8.530;2023-12-04T13:18:49;7.60;;;5.33;;
5801;SDS011;2927;49.366;8.530;2023-12-04T13:21:15;12.33;;;6.40;;
5801;SDS011;2927;49.366;8.530;2023-12-04T13:23:40;15.10;;;7.47;;
5801;SDS011;2927;49.366;8.530;2023-12-04T13:26:06;13.93;;;7.00;;
5801;SDS011;2927;49.366;8.530;2023-12-04T13:28:35;9.13;;;6.53;;
5801;SDS011;2927;49.366;8.530;2023-12-04T13:31:02;9.50;;;5.47;;
5801;SDS011;2927;49.366;8.530;2023-12-04T13:33:28;13.80;;;7.13;;
5801;SDS011;2927;49.366;8.530;2023-12-04T13:35:54;16.30;;;7.50;;
5801;SDS011;2927;49.366;8.530;2023-12-04T13:38:19;15.27;;;8.00;;
5801;SDS011;2927;49.366;8.530;2023-12-04T13:40:45;16.53;;;7.30;;
5801;SDS011;2927;49.366;8.530;2023-12-04T13:43:24;12.07;;;6.87;;
5801;SDS011;2927;49.366;8.530;2023-12-04T13:46:11;22.63;;;8.50;;
5801;SDS011;2927;49.366;8.530;2023-12-04T13:48:37;22.40;;;7.57;;
5801;SDS011;2927;49.366;8.530;2023-12-04T13:51:06;14.23;;;6.97;;
5801;SDS011;2927;49.366;8.530;2023-12-04T13:53:35;11.50;;;6.97;;
5801;SDS011;2927;49.366;8.530;2023-12-04T13:56:05;10.80;;;5.77;;
5801;SDS011;2927;49.366;8.530;2023-12-04T13:58:49;14.40;;;6.83;;
5801;SDS011;2927;49.366;8.530;2023-12-04T14:01:22;11.90;;;6.80;;
5801;SDS011;2927;49.366;8.530;2023-12-04T14:03:55;14.80;;;7.47;;
5801;SDS011;2927;49.366;8.530;2023-12-04T14:06:26;9.80;;;6.67;;
5801;SDS011;2927;49.366;8.530;2023-12-04T14:08:52;13.93;;;6.80;;
5801;SDS011;2927;49.366;8.530;2023-12-04T14:11:18;9.60;;;6.43;;
5801;SDS011;2927;49.366;8.530;2023-12-04T14:13:44;13.30;;;6.77;;
5801;SDS011;2927;49.366;8.530;2023-12-04T14:16:10;12.57;;;6.90;;
5801;SDS011;2927;49.366;8.530;2023-12-04T14:18:35;19.27;;;7.17;;
5801;SDS011;2927;49.366;8.530;2023-12-04T14:21:01;13.07;;;6.90;;
5801;SDS011;2927;49.366;8.530;2023-12-04T14:23:27;13.30;;;7.60;;
5801;SDS011;2927;49.366;8.530;2023-12-04T14:25:52;15.20;;;8.00;;
5801;SDS011;2927;49.366;8.530;2023-12-04T14:28:18;16.43;;;8.07;;
5801;SDS011;2927;49.366;8.530;2023-12-04T14:30:43;16.37;;;6.53;;
5801;SDS011;2927;49.366;8.530;2023-12-04T14:33:09;15.30;;;7.40;;
5801;SDS011;2927;49.366;8.530;2023-12-04T14:35:35;16.50;;;8.20;;
5801;SDS011;2927;49.366;8.530;2023-12-04T14:38:04;12.57;;;6.60;;
5801;SDS011;2927;49.366;8.530;2023-12-04T14:40:30;11.23;;;6.63;;
5801;SDS011;2927;49.366;8.530;2023-12-04T14:42:55;13.93;;;6.60;;
5801;SDS011;2927;49.366;8.530;2023-12-04T14:45:21;12.37;;;7.43;;
5801;SDS011;2927;49.366;8.530;2023-12-04T14:47:47;16.20;;;6.87;;
5801;SDS011;2927;49.366;8.530;2023-12-04T14:50:13;16.67;;;6.73;;
5801;SDS011;2927;49.366;8.530;2023-12-04T14:52:39;18.13;;;8.30;;
5801;SDS011;2927;49.366;8.530;2023-12-04T14:55:12;13.90;;;6.87;;
5801;SDS011;2927;49.366;8.530;2023-12-04T14:57:52;11.10;;;7.50;;
5801;SDS011;2927;49.366;8.530;2023-12-04T15:00:37;10.43;;;7.40;;
5801;SDS011;2927;49.366;8.530;2023-12-04T15:03:11;9.23;;;5.83;;
5801;SDS011;2927;49.366;8.530;2023-12-04T15:05:46;17.10;;;7.23;;
5801;SDS011;2927;49.366;8.530;2023-12-04T15:08:30;12.07;;;6.20;;